UAE6T OMDB-OBBI
Flight info
| Callsign | UAE6T |
|---|---|
| Flight time | N/A |
| Altitude | 26000 |
| Route | NABIX P699 ORMID M556 ORDIG |
| Aircraft | B77W/H-SDE2E3GHIJ3J5M1P2RWXYZ/LB1D1 |
Departure
| Time | 2026-04-21 20:53 |
|---|---|
| Airport | Dubai International Airport (OMDB) |
Arrival
| Time | N/A |
|---|---|
| Airport | Bahrain International Airport (OBBI) |
| Time | Latitude | Longitude | Altitude | Speed | Heading |
|---|---|---|---|---|---|
| 2026-04-21 20:18 | 25.23652 | 55.38451 | 45 ft | 0 kts | 120° |
| 2026-04-21 20:39 | 25.23654 | 55.38447 | 46 ft | 3 kts | 119° |
| 2026-04-21 20:40 | 25.23661 | 55.38431 | 46 ft | 2 kts | 105° |
| 2026-04-21 20:40 | 25.23663 | 55.38420 | 46 ft | 2 kts | 97° |
| 2026-04-21 20:40 | 25.23664 | 55.38404 | 45 ft | 2 kts | 87° |
| 2026-04-21 20:40 | 25.23662 | 55.38387 | 45 ft | 2 kts | 76° |
| 2026-04-21 20:41 | 25.23657 | 55.38371 | 46 ft | 2 kts | 66° |
| 2026-04-21 20:41 | 25.23650 | 55.38357 | 46 ft | 2 kts | 55° |
| 2026-04-21 20:41 | 25.23641 | 55.38344 | 45 ft | 2 kts | 44° |
| 2026-04-21 20:41 | 25.23627 | 55.38332 | 46 ft | 0 kts | 32° |
| 2026-04-21 20:42 | 25.23636 | 55.38338 | 46 ft | 4 kts | 33° |
| 2026-04-21 20:42 | 25.23653 | 55.38350 | 46 ft | 2 kts | 31° |
| 2026-04-21 20:42 | 25.23659 | 55.38354 | 46 ft | 0 kts | 31° |
| 2026-04-21 20:46 | 25.23675 | 55.38364 | 45 ft | 4 kts | 31° |
| 2026-04-21 20:47 | 25.23717 | 55.38392 | 46 ft | 9 kts | 31° |
| 2026-04-21 20:47 | 25.23786 | 55.38438 | 45 ft | 13 kts | 30° |
| 2026-04-21 20:47 | 25.23867 | 55.38496 | 45 ft | 12 kts | 32° |
| 2026-04-21 20:47 | 25.23941 | 55.38548 | 45 ft | 3 kts | 32° |
| 2026-04-21 20:48 | 25.23945 | 55.38551 | 45 ft | 0 kts | 32° |
| 2026-04-21 20:48 | 25.23947 | 55.38552 | 45 ft | 1 kts | 32° |
| 2026-04-21 20:48 | 25.23972 | 55.38569 | 45 ft | 8 kts | 31° |
| 2026-04-21 20:49 | 25.24031 | 55.38608 | 45 ft | 7 kts | 30° |
| 2026-04-21 20:49 | 25.24079 | 55.38638 | 45 ft | 8 kts | 30° |
| 2026-04-21 20:49 | 25.24144 | 55.38685 | 45 ft | 13 kts | 34° |
| 2026-04-21 20:49 | 25.24224 | 55.38691 | 45 ft | 8 kts | 320° |
| 2026-04-21 20:50 | 25.24253 | 55.38654 | 45 ft | 11 kts | 304° |
| 2026-04-21 20:50 | 25.24305 | 55.38562 | 45 ft | 16 kts | 301° |
| 2026-04-21 20:50 | 25.24360 | 55.38461 | 45 ft | 14 kts | 301° |
| 2026-04-21 20:50 | 25.24412 | 55.38368 | 45 ft | 13 kts | 302° |
| 2026-04-21 20:51 | 25.24458 | 55.38287 | 45 ft | 7 kts | 301° |
| 2026-04-21 20:51 | 25.24506 | 55.38258 | 45 ft | 6 kts | 10° |
| 2026-04-21 20:51 | 25.24537 | 55.38271 | 45 ft | 8 kts | 26° |
| 2026-04-21 20:51 | 25.24615 | 55.38316 | 45 ft | 4 kts | 13° |
| 2026-04-21 20:52 | 25.24639 | 55.38311 | 45 ft | 6 kts | 328° |
| 2026-04-21 20:52 | 25.24677 | 55.38257 | 45 ft | 12 kts | 302° |
| 2026-04-21 20:52 | 25.24798 | 55.38042 | 45 ft | 69 kts | 301° |
| 2026-04-21 20:52 | 25.25197 | 55.37323 | 45 ft | 148 kts | 301° |
| 2026-04-21 20:53 | 25.25820 | 55.36186 | 307 ft | 192 kts | 302° |
| 2026-04-21 20:53 | 25.26534 | 55.34862 | 1065 ft | 208 kts | 302° |
| 2026-04-21 20:53 | 25.27274 | 55.33534 | 2006 ft | 208 kts | 303° |
| 2026-04-21 20:53 | 25.28258 | 55.31713 | 3109 ft | 212 kts | 303° |
| 2026-04-21 20:54 | 25.28671 | 55.30690 | 3458 ft | 228 kts | 285° |
| 2026-04-21 20:54 | 25.28748 | 55.28890 | 4048 ft | 247 kts | 267° |
| 2026-04-21 20:54 | 25.28583 | 55.26980 | 4854 ft | 258 kts | 265° |
| 2026-04-21 20:54 | 25.28386 | 55.24949 | 5633 ft | 271 kts | 265° |
| 2026-04-21 20:55 | 25.28184 | 55.22893 | 6615 ft | 275 kts | 264° |
| 2026-04-21 20:55 | 25.27979 | 55.20813 | 7645 ft | 276 kts | 263° |
| 2026-04-21 20:55 | 25.27772 | 55.18713 | 8667 ft | 277 kts | 263° |
| 2026-04-21 20:55 | 25.27495 | 55.15917 | 9966 ft | 280 kts | 263° |
| 2026-04-21 20:56 | 25.27352 | 55.14474 | 10549 ft | 285 kts | 263° |
| 2026-04-21 20:56 | 25.27130 | 55.12245 | 11247 ft | 299 kts | 263° |
| 2026-04-21 20:56 | 25.26898 | 55.09918 | 11913 ft | 315 kts | 263° |
| 2026-04-21 20:56 | 25.26653 | 55.07455 | 12604 ft | 328 kts | 263° |
| 2026-04-21 20:57 | 25.26400 | 55.04924 | 13276 ft | 342 kts | 263° |
| 2026-04-21 20:57 | 25.26137 | 55.02292 | 14147 ft | 349 kts | 263° |
| 2026-04-21 20:57 | 25.25865 | 54.99578 | 14683 ft | 356 kts | 264° |
| 2026-04-21 20:57 | 25.25593 | 54.96864 | 14773 ft | 357 kts | 264° |
| 2026-04-21 20:58 | 25.25320 | 54.94142 | 14789 ft | 356 kts | 264° |
| 2026-04-21 20:58 | 25.25047 | 54.91420 | 14784 ft | 355 kts | 264° |
| 2026-04-21 20:58 | 25.24775 | 54.88723 | 14786 ft | 355 kts | 264° |
| 2026-04-21 20:58 | 25.24503 | 54.86025 | 15008 ft | 371 kts | 264° |
| 2026-04-21 20:59 | 25.24248 | 54.83492 | 16054 ft | 368 kts | 264° |
| 2026-04-21 20:59 | 25.23968 | 54.80730 | 17256 ft | 364 kts | 264° |
| 2026-04-21 20:59 | 25.23690 | 54.77979 | 18207 ft | 366 kts | 264° |
| 2026-04-21 20:59 | 25.23402 | 54.75143 | 18970 ft | 374 kts | 264° |
| 2026-04-21 21:00 | 25.23115 | 54.72317 | 19803 ft | 378 kts | 264° |
| 2026-04-21 21:00 | 25.22819 | 54.69408 | 20698 ft | 381 kts | 264° |
| 2026-04-21 21:00 | 25.22526 | 54.66531 | 21516 ft | 384 kts | 264° |
| 2026-04-21 21:00 | 25.22228 | 54.63607 | 22249 ft | 389 kts | 264° |
| 2026-04-21 21:01 | 25.21923 | 54.60625 | 23027 ft | 393 kts | 264° |
| 2026-04-21 21:01 | 25.21617 | 54.57633 | 23766 ft | 398 kts | 264° |
| 2026-04-21 21:01 | 25.21407 | 54.54583 | 24374 ft | 405 kts | 270° |
| 2026-04-21 21:01 | 25.21797 | 54.50407 | 25269 ft | 413 kts | 281° |
| 2026-04-21 21:02 | 25.22263 | 54.48370 | 25642 ft | 415 kts | 283° |
| 2026-04-21 21:02 | 25.23042 | 54.45295 | 25774 ft | 414 kts | 284° |
| 2026-04-21 21:02 | 25.24070 | 54.41266 | 25782 ft | 410 kts | 284° |
| 2026-04-21 21:02 | 25.24584 | 54.39240 | 25784 ft | 411 kts | 284° |
| 2026-04-21 21:03 | 25.25348 | 54.36221 | 25784 ft | 412 kts | 284° |
| 2026-04-21 21:03 | 25.26120 | 54.33162 | 25789 ft | 410 kts | 284° |
| 2026-04-21 21:03 | 25.26883 | 54.30128 | 25792 ft | 410 kts | 283° |
| 2026-04-21 21:03 | 25.27886 | 54.26096 | 25792 ft | 410 kts | 283° |
| 2026-04-21 21:04 | 25.28389 | 54.24070 | 25788 ft | 409 kts | 283° |
| 2026-04-21 21:04 | 25.29141 | 54.21035 | 25793 ft | 411 kts | 283° |
| 2026-04-21 21:04 | 25.29887 | 54.18019 | 25791 ft | 411 kts | 283° |
| 2026-04-21 21:04 | 25.30643 | 54.14962 | 25790 ft | 410 kts | 283° |
| 2026-04-21 21:05 | 25.31596 | 54.10924 | 25794 ft | 410 kts | 281° |
| 2026-04-21 21:05 | 25.32028 | 54.08868 | 25796 ft | 410 kts | 281° |
| 2026-04-21 21:05 | 25.32669 | 54.05793 | 25794 ft | 410 kts | 281° |
| 2026-04-21 21:05 | 25.33309 | 54.02735 | 25791 ft | 409 kts | 281° |
| 2026-04-21 21:06 | 25.33949 | 53.99680 | 25790 ft | 409 kts | 281° |
| 2026-04-21 21:06 | 25.34590 | 53.96632 | 25788 ft | 409 kts | 281° |
| 2026-04-21 21:06 | 25.35230 | 53.93584 | 25790 ft | 410 kts | 281° |
| 2026-04-21 21:06 | 25.35871 | 53.90537 | 25794 ft | 409 kts | 281° |
| 2026-04-21 21:07 | 25.36515 | 53.87474 | 25796 ft | 409 kts | 281° |
| 2026-04-21 21:07 | 25.37376 | 53.83374 | 25796 ft | 410 kts | 281° |
| 2026-04-21 21:07 | 25.37800 | 53.81360 | 25797 ft | 410 kts | 281° |
| 2026-04-21 21:07 | 25.38442 | 53.78306 | 25794 ft | 409 kts | 281° |
| 2026-04-21 21:08 | 25.39084 | 53.75251 | 25797 ft | 409 kts | 281° |
| 2026-04-21 21:08 | 25.39730 | 53.72168 | 25795 ft | 408 kts | 281° |
| 2026-04-21 21:08 | 25.40365 | 53.69143 | 25795 ft | 408 kts | 281° |
| 2026-04-21 21:08 | 25.41220 | 53.65058 | 25795 ft | 409 kts | 281° |
| 2026-04-21 21:09 | 25.41648 | 53.63009 | 25796 ft | 408 kts | 281° |
| 2026-04-21 21:09 | 25.42283 | 53.59969 | 25797 ft | 409 kts | 281° |
| 2026-04-21 21:09 | 25.42928 | 53.56878 | 25798 ft | 410 kts | 281° |
| 2026-04-21 21:09 | 25.43566 | 53.53817 | 25800 ft | 408 kts | 281° |
| 2026-04-21 21:10 | 25.44199 | 53.50775 | 25797 ft | 409 kts | 281° |
| 2026-04-21 21:10 | 25.45044 | 53.46712 | 25796 ft | 409 kts | 281° |
| 2026-04-21 21:10 | 25.45472 | 53.44649 | 25795 ft | 408 kts | 281° |
| 2026-04-21 21:10 | 25.46105 | 53.41600 | 25795 ft | 409 kts | 281° |
| 2026-04-21 21:11 | 25.46740 | 53.38536 | 25799 ft | 410 kts | 281° |
| 2026-04-21 21:11 | 25.47373 | 53.35478 | 25797 ft | 409 kts | 281° |
| 2026-04-21 21:11 | 25.48012 | 53.32385 | 25804 ft | 408 kts | 281° |
| 2026-04-21 21:11 | 25.48641 | 53.29342 | 25803 ft | 408 kts | 281° |
| 2026-04-21 21:12 | 25.49267 | 53.26305 | 25804 ft | 408 kts | 281° |
| 2026-04-21 21:12 | 25.49896 | 53.23253 | 25805 ft | 407 kts | 281° |
| 2026-04-21 21:12 | 25.50531 | 53.20164 | 25806 ft | 409 kts | 281° |
| 2026-04-21 21:12 | 25.51160 | 53.17097 | 25804 ft | 409 kts | 281° |
| 2026-04-21 21:13 | 25.51787 | 53.14040 | 25803 ft | 409 kts | 281° |
| 2026-04-21 21:13 | 25.52408 | 53.11005 | 25805 ft | 408 kts | 281° |
| 2026-04-21 21:13 | 25.53032 | 53.07956 | 25808 ft | 408 kts | 281° |
| 2026-04-21 21:13 | 25.53658 | 53.04889 | 25809 ft | 410 kts | 281° |
| 2026-04-21 21:14 | 25.54288 | 53.01801 | 25804 ft | 408 kts | 281° |